sensor_id;sensor_type;location;lat;lon;timestamp;temperature;humidity
20566;DHT22;10441;50.884;12.064;2022-09-12T00:37:14;11.10;99.90
20566;DHT22;10441;50.884;12.064;2022-09-12T01:40:21;10.50;99.90
20566;DHT22;10441;50.884;12.064;2022-09-12T01:42:51;10.50;99.90
20566;DHT22;10441;50.884;12.064;2022-09-12T01:45:20;10.70;99.90
20566;DHT22;10441;50.884;12.064;2022-09-12T01:47:48;10.70;99.90
20566;DHT22;10441;50.884;12.064;2022-09-12T01:50:17;10.70;99.90
20566;DHT22;10441;50.884;12.064;2022-09-12T01:52:45;10.50;99.90
20566;DHT22;10441;50.884;12.064;2022-09-12T01:55:15;10.40;99.90
20566;DHT22;10441;50.884;12.064;2022-09-12T01:57:45;10.60;99.90
20566;DHT22;10441;50.884;12.064;2022-09-12T02:00:14;10.60;99.90
20566;DHT22;10441;50.884;12.064;2022-09-12T02:02:42;10.50;99.90
20566;DHT22;10441;50.884;12.064;2022-09-12T02:05:16;10.40;99.90
20566;DHT22;10441;50.884;12.064;2022-09-12T02:07:44;10.30;99.90
20566;DHT22;10441;50.884;12.064;2022-09-12T02:10:13;10.40;99.90
20566;DHT22;10441;50.884;12.064;2022-09-12T02:12:42;10.50;99.90
20566;DHT22;10441;50.884;12.064;2022-09-12T02:15:12;10.70;99.90
20566;DHT22;10441;50.884;12.064;2022-09-12T02:17:40;10.50;99.90
20566;DHT22;10441;50.884;12.064;2022-09-12T02:20:09;10.40;99.90
20566;DHT22;10441;50.884;12.064;2022-09-12T02:22:36;10.40;99.90
20566;DHT22;10441;50.884;12.064;2022-09-12T02:25:04;10.40;99.90
20566;DHT22;10441;50.884;12.064;2022-09-12T02:27:32;10.40;99.90
20566;DHT22;10441;50.884;12.064;2022-09-12T02:30:02;10.40;99.90
20566;DHT22;10441;50.884;12.064;2022-09-12T02:32:32;10.30;99.90
20566;DHT22;10441;50.884;12.064;2022-09-12T02:35:02;10.10;99.90
20566;DHT22;10441;50.884;12.064;2022-09-12T02:37:33;10.10;99.90
20566;DHT22;10441;50.884;12.064;2022-09-12T02:40:04;10.20;99.90
20566;DHT22;10441;50.884;12.064;2022-09-12T02:42:33;10.30;99.90
20566;DHT22;10441;50.884;12.064;2022-09-12T02:45:00;10.30;99.90
20566;DHT22;10441;50.884;12.064;2022-09-12T02:47:29;10.40;99.90
20566;DHT22;10441;50.884;12.064;2022-09-12T02:49:58;10.40;99.90
20566;DHT22;10441;50.884;12.064;2022-09-12T02:52:26;10.40;99.90
20566;DHT22;10441;50.884;12.064;2022-09-12T02:54:53;10.50;99.90
20566;DHT22;10441;50.884;12.064;2022-09-12T02:57:20;10.40;99.90
20566;DHT22;10441;50.884;12.064;2022-09-12T02:59:47;10.50;99.90
20566;DHT22;10441;50.884;12.064;2022-09-12T03:02:19;10.40;99.90
20566;DHT22;10441;50.884;12.064;2022-09-12T03:04:56;10.40;99.90
20566;DHT22;10441;50.884;12.064;2022-09-12T03:07:43;10.20;99.90
20566;DHT22;10441;50.884;12.064;2022-09-12T03:10:15;10.20;99.90
20566;DHT22;10441;50.884;12.064;2022-09-12T03:12:46;10.20;99.90
20566;DHT22;10441;50.884;12.064;2022-09-12T03:15:21;10.10;99.90
20566;DHT22;10441;50.884;12.064;2022-09-12T03:17:55;9.90;99.90
20566;DHT22;10441;50.884;12.064;2022-09-12T03:20:29;9.90;99.90
20566;DHT22;10441;50.884;12.064;2022-09-12T03:23:02;9.90;99.90
20566;DHT22;10441;50.884;12.064;2022-09-12T03:25:29;9.90;99.90
20566;DHT22;10441;50.884;12.064;2022-09-12T03:27:57;9.90;99.90
20566;DHT22;10441;50.884;12.064;2022-09-12T03:30:25;9.80;99.90
20566;DHT22;10441;50.884;12.064;2022-09-12T03:32:52;9.70;99.90
20566;DHT22;10441;50.884;12.064;2022-09-12T03:35:21;9.60;99.90
20566;DHT22;10441;50.884;12.064;2022-09-12T03:37:48;9.60;99.90
20566;DHT22;10441;50.884;12.064;2022-09-12T03:40:17;9.80;99.90
20566;DHT22;10441;50.884;12.064;2022-09-12T05:41:26;12.30;99.90
20566;DHT22;10441;50.884;12.064;2022-09-12T05:43:54;12.70;99.90
20566;DHT22;10441;50.884;12.064;2022-09-12T05:46:21;13.50;99.90
20566;DHT22;10441;50.884;12.064;2022-09-12T05:48:49;14.10;1.00
20566;DHT22;10441;50.884;12.064;2022-09-12T05:51:17;14.70;1.00
20566;DHT22;10441;50.884;12.064;2022-09-12T05:53:45;15.30;99.90
20566;DHT22;10441;50.884;12.064;2022-09-12T05:56:13;15.60;1.00
20566;DHT22;10441;50.884;12.064;2022-09-12T05:58:42;16.30;1.00
20566;DHT22;10441;50.884;12.064;2022-09-12T06:01:10;16.60;1.00
20566;DHT22;10441;50.884;12.064;2022-09-12T06:03:39;16.60;1.00
20566;DHT22;10441;50.884;12.064;2022-09-12T06:06:06;17.80;1.00
20566;DHT22;10441;50.884;12.064;2022-09-12T06:08:33;17.90;1.00
20566;DHT22;10441;50.884;12.064;2022-09-12T06:11:01;18.10;1.00
20566;DHT22;10441;50.884;12.064;2022-09-12T06:13:29;18.30;1.00
20566;DHT22;10441;50.884;12.064;2022-09-12T06:16:02;18.00;1.00
20566;DHT22;10441;50.884;12.064;2022-09-12T06:18:29;19.00;1.00
20566;DHT22;10441;50.884;12.064;2022-09-12T06:20:57;17.60;1.00
20566;DHT22;10441;50.884;12.064;2022-09-12T06:23:23;17.80;1.00
20566;DHT22;10441;50.884;12.064;2022-09-12T06:25:51;19.00;1.00
20566;DHT22;10441;50.884;12.064;2022-09-12T06:28:18;19.30;99.90
20566;DHT22;10441;50.884;12.064;2022-09-12T06:30:45;17.40;99.90
20566;DHT22;10441;50.884;12.064;2022-09-12T06:33:13;17.50;99.90
20566;DHT22;10441;50.884;12.064;2022-09-12T06:35:40;19.50;99.90
20566;DHT22;10441;50.884;12.064;2022-09-12T06:38:06;19.40;99.90
20566;DHT22;10441;50.884;12.064;2022-09-12T06:40:34;18.10;99.90
20566;DHT22;10441;50.884;12.064;2022-09-12T06:45:47;19.10;99.90
20566;DHT22;10441;50.884;12.064;2022-09-12T06:48:15;19.30;99.90
20566;DHT22;10441;50.884;12.064;2022-09-12T06:50:42;19.80;99.90
20566;DHT22;10441;50.884;12.064;2022-09-12T06:53:09;20.50;99.90
20566;DHT22;10441;50.884;12.064;2022-09-12T06:55:36;19.60;99.90
20566;DHT22;10441;50.884;12.064;2022-09-12T06:58:03;20.10;99.90
20566;DHT22;10441;50.884;12.064;2022-09-12T07:00:35;20.60;99.90
20566;DHT22;10441;50.884;12.064;2022-09-12T07:03:03;20.40;99.90
20566;DHT22;10441;50.884;12.064;2022-09-12T07:05:31;20.60;99.90
20566;DHT22;10441;50.884;12.064;2022-09-12T07:07:59;20.30;99.90
20566;DHT22;10441;50.884;12.064;2022-09-12T07:10:28;20.60;99.90
20566;DHT22;10441;50.884;12.064;2022-09-12T07:12:55;20.10;99.90
20566;DHT22;10441;50.884;12.064;2022-09-12T07:15:23;19.60;99.90
20566;DHT22;10441;50.884;12.064;2022-09-12T07:17:51;19.70;99.90
20566;DHT22;10441;50.884;12.064;2022-09-12T07:20:19;19.50;99.90
20566;DHT22;10441;50.884;12.064;2022-09-12T07:22:50;19.40;99.90
20566;DHT22;10441;50.884;12.064;2022-09-12T07:25:17;19.40;99.90
20566;DHT22;10441;50.884;12.064;2022-09-12T07:27:44;19.00;99.90
20566;DHT22;10441;50.884;12.064;2022-09-12T07:30:10;19.20;99.90
20566;DHT22;10441;50.884;12.064;2022-09-12T07:32:37;19.60;99.90
20566;DHT22;10441;50.884;12.064;2022-09-12T07:35:05;19.70;99.90
20566;DHT22;10441;50.884;12.064;2022-09-12T07:37:32;19.40;99.90
20566;DHT22;10441;50.884;12.064;2022-09-12T07:40:00;20.00;99.90
20566;DHT22;10441;50.884;12.064;2022-09-12T07:42:27;20.20;99.90
20566;DHT22;10441;50.884;12.064;2022-09-12T09:46:42;24.90;99.90
20566;DHT22;10441;50.884;12.064;2022-09-12T09:49:09;25.20;99.90
20566;DHT22;10441;50.884;12.064;2022-09-12T09:51:38;24.50;99.90
20566;DHT22;10441;50.884;12.064;2022-09-12T09:54:09;23.80;99.90
20566;DHT22;10441;50.884;12.064;2022-09-12T09:56:39;23.40;99.90
20566;DHT22;10441;50.884;12.064;2022-09-12T09:59:07;23.40;99.90
20566;DHT22;10441;50.884;12.064;2022-09-12T10:01:35;23.50;99.90
20566;DHT22;10441;50.884;12.064;2022-09-12T10:04:04;25.40;99.90
20566;DHT22;10441;50.884;12.064;2022-09-12T10:06:40;25.70;99.90
20566;DHT22;10441;50.884;12.064;2022-09-12T10:09:21;25.60;99.90
20566;DHT22;10441;50.884;12.064;2022-09-12T10:11:50;25.90;99.90
20566;DHT22;10441;50.884;12.064;2022-09-12T10:14:25;25.90;99.90
20566;DHT22;10441;50.884;12.064;2022-09-12T10:16:53;24.50;99.90
20566;DHT22;10441;50.884;12.064;2022-09-12T10:19:24;24.60;99.90
20566;DHT22;10441;50.884;12.064;2022-09-12T10:21:58;24.30;99.90
20566;DHT22;10441;50.884;12.064;2022-09-12T10:24:27;25.00;99.90
20566;DHT22;10441;50.884;12.064;2022-09-12T10:26:56;24.90;99.90
20566;DHT22;10441;50.884;12.064;2022-09-12T10:29:25;25.40;99.90
20566;DHT22;10441;50.884;12.064;2022-09-12T10:31:53;26.60;99.90
20566;DHT22;10441;50.884;12.064;2022-09-12T10:34:26;26.20;99.90
20566;DHT22;10441;50.884;12.064;2022-09-12T10:36:58;26.10;99.90
20566;DHT22;10441;50.884;12.064;2022-09-12T10:39:26;25.10;99.90
20566;DHT22;10441;50.884;12.064;2022-09-12T10:41:53;25.70;99.90
20566;DHT22;10441;50.884;12.064;2022-09-12T10:44:23;26.40;99.90
20566;DHT22;10441;50.884;12.064;2022-09-12T12:48:20;24.50;99.90
20566;DHT22;10441;50.884;12.064;2022-09-12T12:50:47;25.00;99.90
20566;DHT22;10441;50.884;12.064;2022-09-12T12:53:16;24.70;99.90
20566;DHT22;10441;50.884;12.064;2022-09-12T12:55:45;24.00;99.90
20566;DHT22;10441;50.884;12.064;2022-09-12T12:58:20;24.10;99.90
20566;DHT22;10441;50.884;12.064;2022-09-12T13:00:59;24.40;99.90
20566;DHT22;10441;50.884;12.064;2022-09-12T13:03:30;23.50;99.90
20566;DHT22;10441;50.884;12.064;2022-09-12T13:05:59;23.30;99.90
20566;DHT22;10441;50.884;12.064;2022-09-12T13:08:27;23.30;99.90
20566;DHT22;10441;50.884;12.064;2022-09-12T13:10:57;23.50;99.90
20566;DHT22;10441;50.884;12.064;2022-09-12T13:13:26;23.90;99.90
20566;DHT22;10441;50.884;12.064;2022-09-12T13:15:53;24.40;99.90
20566;DHT22;10441;50.884;12.064;2022-09-12T13:18:22;23.80;99.90
20566;DHT22;10441;50.884;12.064;2022-09-12T13:20:52;24.40;99.90
20566;DHT22;10441;50.884;12.064;2022-09-12T13:23:20;24.90;99.90
20566;DHT22;10441;50.884;12.064;2022-09-12T13:25:51;25.00;99.90
20566;DHT22;10441;50.884;12.064;2022-09-12T13:28:18;24.70;99.90
20566;DHT22;10441;50.884;12.064;2022-09-12T13:30:46;24.60;99.90
20566;DHT22;10441;50.884;12.064;2022-09-12T13:33:18;24.40;99.90
20566;DHT22;10441;50.884;12.064;2022-09-12T13:35:56;24.30;99.90
20566;DHT22;10441;50.884;12.064;2022-09-12T13:38:27;24.10;99.90
20566;DHT22;10441;50.884;12.064;2022-09-12T13:41:05;24.10;99.90
20566;DHT22;10441;50.884;12.064;2022-09-12T13:43:35;24.60;99.90
20566;DHT22;10441;50.884;12.064;2022-09-12T13:46:03;24.60;99.90
20566;DHT22;10441;50.884;12.064;2022-09-12T13:48:31;24.80;99.90
20566;DHT22;10441;50.884;12.064;2022-09-12T13:51:00;24.20;99.90
20566;DHT22;10441;50.884;12.064;2022-09-12T13:53:28;24.60;99.90
20566;DHT22;10441;50.884;12.064;2022-09-12T13:55:56;24.50;99.90
20566;DHT22;10441;50.884;12.064;2022-09-12T13:58:24;24.30;99.90
20566;DHT22;10441;50.884;12.064;2022-09-12T14:01:03;24.40;99.90
20566;DHT22;10441;50.884;12.064;2022-09-12T14:03:30;24.30;99.90
20566;DHT22;10441;50.884;12.064;2022-09-12T14:06:16;24.30;99.90
20566;DHT22;10441;50.884;12.064;2022-09-12T14:08:44;24.30;99.90
20566;DHT22;10441;50.884;12.064;2022-09-12T14:11:17;24.30;99.90
20566;DHT22;10441;50.884;12.064;2022-09-12T14:13:46;24.40;99.90
20566;DHT22;10441;50.884;12.064;2022-09-12T14:16:13;24.40;99.90
20566;DHT22;10441;50.884;12.064;2022-09-12T14:18:41;24.50;99.90
20566;DHT22;10441;50.884;12.064;2022-09-12T14:21:09;24.20;99.90
20566;DHT22;10441;50.884;12.064;2022-09-12T14:23:40;24.20;99.90
20566;DHT22;10441;50.884;12.064;2022-09-12T14:26:08;24.20;99.90
20566;DHT22;10441;50.884;12.064;2022-09-12T14:28:38;23.90;99.90
20566;DHT22;10441;50.884;12.064;2022-09-12T14:31:06;24.00;99.90
20566;DHT22;10441;50.884;12.064;2022-09-12T14:33:44;24.00;99.90
20566;DHT22;10441;50.884;12.064;2022-09-12T14:36:15;23.90;99.90
20566;DHT22;10441;50.884;12.064;2022-09-12T14:38:45;24.10;99.90
20566;DHT22;10441;50.884;12.064;2022-09-12T14:41:19;23.90;99.90
20566;DHT22;10441;50.884;12.064;2022-09-12T14:43:49;23.80;99.90
20566;DHT22;10441;50.884;12.064;2022-09-12T14:46:17;23.50;99.90
20566;DHT22;10441;50.884;12.064;2022-09-12T14:48:46;23.60;99.90
20566;DHT22;10441;50.884;12.064;2022-09-12T14:51:17;23.50;99.90
20566;DHT22;10441;50.884;12.064;2022-09-12T14:53:47;23.40;99.90
20566;DHT22;10441;50.884;12.064;2022-09-12T14:56:14;23.10;99.90
20566;DHT22;10441;50.884;12.064;2022-09-12T14:58:41;23.10;99.90
20566;DHT22;10441;50.884;12.064;2022-09-12T15:01:21;23.00;99.90
20566;DHT22;10441;50.884;12.064;2022-09-12T15:03:50;22.90;99.90
20566;DHT22;10441;50.884;12.064;2022-09-12T15:06:20;22.90;99.90
20566;DHT22;10441;50.884;12.064;2022-09-12T15:08:50;22.90;99.90
20566;DHT22;10441;50.884;12.064;2022-09-12T15:11:20;22.60;99.90
20566;DHT22;10441;50.884;12.064;2022-09-12T15:13:47;22.60;99.90
20566;DHT22;10441;50.884;12.064;2022-09-12T15:16:14;22.50;99.90
20566;DHT22;10441;50.884;12.064;2022-09-12T15:18:41;22.60;99.90
20566;DHT22;10441;50.884;12.064;2022-09-12T15:21:11;22.60;99.90
20566;DHT22;10441;50.884;12.064;2022-09-12T15:23:40;22.50;99.90
20566;DHT22;10441;50.884;12.064;2022-09-12T15:26:09;22.50;99.90
20566;DHT22;10441;50.884;12.064;2022-09-12T15:28:37;22.40;99.90
20566;DHT22;10441;50.884;12.064;2022-09-12T15:31:05;22.20;99.90
20566;DHT22;10441;50.884;12.064;2022-09-12T15:33:33;21.90;99.90
20566;DHT22;10441;50.884;12.064;2022-09-12T15:36:01;21.80;99.90
20566;DHT22;10441;50.884;12.064;2022-09-12T15:38:28;21.70;99.90
20566;DHT22;10441;50.884;12.064;2022-09-12T15:40:57;21.60;99.90
20566;DHT22;10441;50.884;12.064;2022-09-12T15:43:25;21.60;99.90
20566;DHT22;10441;50.884;12.064;2022-09-12T15:45:51;21.50;99.90
20566;DHT22;10441;50.884;12.064;2022-09-12T16:49:05;19.10;99.90
20566;DHT22;10441;50.884;12.064;2022-09-12T16:51:33;19.00;99.90
20566;DHT22;10441;50.884;12.064;2022-09-12T16:54:02;18.80;99.90
20566;DHT22;10441;50.884;12.064;2022-09-12T16:56:29;18.60;99.90
20566;DHT22;10441;50.884;12.064;2022-09-12T16:58:57;18.40;99.90
20566;DHT22;10441;50.884;12.064;2022-09-12T17:01:25;18.30;1.00
20566;DHT22;10441;50.884;12.064;2022-09-12T17:03:53;18.00;1.00
20566;DHT22;10441;50.884;12.064;2022-09-12T17:06:26;17.80;1.00
20566;DHT22;10441;50.884;12.064;2022-09-12T17:08:54;17.60;1.00
20566;DHT22;10441;50.884;12.064;2022-09-12T17:11:26;17.40;1.00
20566;DHT22;10441;50.884;12.064;2022-09-12T17:13:55;17.20;1.00
20566;DHT22;10441;50.884;12.064;2022-09-12T17:16:26;17.00;1.00
20566;DHT22;10441;50.884;12.064;2022-09-12T17:18:53;16.80;1.00
20566;DHT22;10441;50.884;12.064;2022-09-12T17:21:26;16.60;1.00
20566;DHT22;10441;50.884;12.064;2022-09-12T17:23:54;16.40;1.00
20566;DHT22;10441;50.884;12.064;2022-09-12T17:26:22;16.30;1.00
20566;DHT22;10441;50.884;12.064;2022-09-12T17:28:50;16.10;1.00
20566;DHT22;10441;50.884;12.064;2022-09-12T17:31:18;16.00;1.00
20566;DHT22;10441;50.884;12.064;2022-09-12T17:33:45;15.80;1.00
20566;DHT22;10441;50.884;12.064;2022-09-12T17:36:14;15.70;1.00
20566;DHT22;10441;50.884;12.064;2022-09-12T17:38:46;15.60;1.00
20566;DHT22;10441;50.884;12.064;2022-09-12T17:41:15;15.40;25.00
20566;DHT22;10441;50.884;12.064;2022-09-12T17:43:43;15.30;69.30
20566;DHT22;10441;50.884;12.064;2022-09-12T17:46:15;15.20;22.30
20566;DHT22;10441;50.884;12.064;2022-09-12T20:49:08;11.70;1.00
20566;DHT22;10441;50.884;12.064;2022-09-12T20:51:39;11.70;1.00
20566;DHT22;10441;50.884;12.064;2022-09-12T20:54:05;11.70;1.00
20566;DHT22;10441;50.884;12.064;2022-09-12T20:56:34;11.70;34.70
20566;DHT22;10441;50.884;12.064;2022-09-12T20:59:03;11.70;25.40
20566;DHT22;10441;50.884;12.064;2022-09-12T21:01:31;11.70;58.10
20566;DHT22;10441;50.884;12.064;2022-09-12T21:03:59;11.60;51.10
20566;DHT22;10441;50.884;12.064;2022-09-12T21:06:29;11.70;59.40
20566;DHT22;10441;50.884;12.064;2022-09-12T21:08:57;11.70;98.40
20566;DHT22;10441;50.884;12.064;2022-09-12T21:11:25;11.70;68.30
20566;DHT22;10441;50.884;12.064;2022-09-12T21:13:54;11.60;99.90
20566;DHT22;10441;50.884;12.064;2022-09-12T21:16:22;11.50;99.90
20566;DHT22;10441;50.884;12.064;2022-09-12T21:18:54;11.40;99.90
20566;DHT22;10441;50.884;12.064;2022-09-12T21:21:22;11.40;99.90
20566;DHT22;10441;50.884;12.064;2022-09-12T21:23:52;11.40;99.90
20566;DHT22;10441;50.884;12.064;2022-09-12T21:26:22;11.40;99.90
20566;DHT22;10441;50.884;12.064;2022-09-12T21:28:53;11.30;99.90
20566;DHT22;10441;50.884;12.064;2022-09-12T21:31:19;11.40;99.90
20566;DHT22;10441;50.884;12.064;2022-09-12T21:33:47;11.30;99.90
20566;DHT22;10441;50.884;12.064;2022-09-12T21:36:16;11.30;99.90
20566;DHT22;10441;50.884;12.064;2022-09-12T21:38:44;11.20;99.90
20566;DHT22;10441;50.884;12.064;2022-09-12T21:41:13;11.10;99.90
20566;DHT22;10441;50.884;12.064;2022-09-12T21:43:42;11.10;99.90
20566;DHT22;10441;50.884;12.064;2022-09-12T21:46:09;11.20;99.90
20566;DHT22;10441;50.884;12.064;2022-09-12T22:50:08;10.90;99.90
20566;DHT22;10441;50.884;12.064;2022-09-12T22:52:35;10.80;99.90
20566;DHT22;10441;50.884;12.064;2022-09-12T22:55:01;10.80;99.90
20566;DHT22;10441;50.884;12.064;2022-09-12T22:57:29;10.90;99.90
20566;DHT22;10441;50.884;12.064;2022-09-12T22:59:56;11.10;99.90
20566;DHT22;10441;50.884;12.064;2022-09-12T23:02:24;11.10;99.90
20566;DHT22;10441;50.884;12.064;2022-09-12T23:04:50;11.00;99.90
20566;DHT22;10441;50.884;12.064;2022-09-12T23:07:20;11.00;99.90
20566;DHT22;10441;50.884;12.064;2022-09-12T23:09:48;11.20;99.90
20566;DHT22;10441;50.884;12.064;2022-09-12T23:12:15;11.50;99.90
20566;DHT22;10441;50.884;12.064;2022-09-12T23:14:42;11.60;99.90
20566;DHT22;10441;50.884;12.064;2022-09-12T23:17:10;11.60;99.90
20566;DHT22;10441;50.884;12.064;2022-09-12T23:19:38;11.70;89.90
20566;DHT22;10441;50.884;12.064;2022-09-12T23:22:06;11.50;89.90
20566;DHT22;10441;50.884;12.064;2022-09-12T23:24:35;11.30;97.10
20566;DHT22;10441;50.884;12.064;2022-09-12T23:27:04;11.10;99.90
20566;DHT22;10441;50.884;12.064;2022-09-12T23:29:35;11.00;99.90
20566;DHT22;10441;50.884;12.064;2022-09-12T23:32:02;10.80;99.90
20566;DHT22;10441;50.884;12.064;2022-09-12T23:34:30;10.70;99.90
20566;DHT22;10441;50.884;12.064;2022-09-12T23:36:57;10.80;99.90
20566;DHT22;10441;50.884;12.064;2022-09-12T23:39:24;10.80;99.90
20566;DHT22;10441;50.884;12.064;2022-09-12T23:41:54;10.70;99.90
20566;DHT22;10441;50.884;12.064;2022-09-12T23:44:22;10.60;99.90
20566;DHT22;10441;50.884;12.064;2022-09-12T23:46:50;10.60;99.90
20566;DHT22;10441;50.884;12.064;2022-09-12T23:49:17;10.60;99.90
20566;DHT22;10441;50.884;12.064;2022-09-12T23:51:44;10.50;99.90
20566;DHT22;10441;50.884;12.064;2022-09-12T23:54:11;10.50;99.90
20566;DHT22;10441;50.884;12.064;2022-09-12T23:56:38;10.50;99.90
20566;DHT22;10441;50.884;12.064;2022-09-12T23:59:07;10.40;99.90
